createdAt,value
2018-08-27T00:00:08.319Z,2.27
2018-08-27T00:02:36.833Z,2.05
2018-08-27T00:05:05.513Z,2.90
2018-08-27T00:07:34.012Z,1.90
2018-08-27T00:10:02.555Z,2.67
2018-08-27T00:12:31.085Z,2.25
2018-08-27T00:14:59.520Z,2.10
2018-08-27T00:17:27.968Z,1.80
2018-08-27T00:19:56.404Z,2.30
2018-08-27T00:22:25.092Z,2.10
2018-08-27T00:24:53.530Z,2.08
2018-08-27T00:27:22.060Z,2.30
2018-08-27T00:29:50.568Z,2.67
2018-08-27T00:32:19.082Z,2.60
2018-08-27T00:34:47.496Z,2.30
2018-08-27T00:37:15.948Z,2.20
2018-08-27T00:39:44.513Z,2.35
2018-08-27T00:42:13.071Z,2.67
2018-08-27T00:44:41.509Z,2.47
2018-08-27T00:47:10.005Z,2.65
2018-08-27T00:49:38.444Z,2.33
2018-08-27T00:52:07.001Z,2.25
2018-08-27T00:54:35.537Z,2.17
2018-08-27T00:57:04.016Z,2.33
2018-08-27T00:59:32.452Z,2.20
2018-08-27T01:02:01.160Z,2.35
2018-08-27T01:04:29.717Z,2.22
2018-08-27T01:06:58.133Z,2.20
2018-08-27T01:09:26.749Z,2.35
2018-08-27T01:11:55.224Z,2.25
2018-08-27T01:14:23.701Z,2.15
2018-08-27T01:16:52.212Z,2.60
2018-08-27T01:19:20.777Z,2.50
2018-08-27T01:21:49.160Z,3.10
2018-08-27T01:24:17.636Z,2.70
2018-08-27T01:26:46.717Z,2.42
2018-08-27T01:29:15.685Z,2.27
2018-08-27T01:31:48.443Z,2.25
2018-08-27T01:34:17.141Z,2.30
2018-08-27T01:36:45.597Z,2.40
2018-08-27T01:39:14.045Z,2.80
2018-08-27T01:41:42.576Z,2.75
2018-08-27T01:44:10.984Z,2.62
2018-08-27T01:46:39.556Z,2.50
2018-08-27T01:49:07.963Z,4.05
2018-08-27T01:51:36.389Z,2.60
2018-08-27T01:54:04.868Z,2.20
2018-08-27T01:56:33.322Z,2.02
2018-08-27T01:59:01.776Z,2.47
2018-08-27T02:01:30.204Z,2.40
2018-08-27T02:03:58.939Z,2.50
2018-08-27T02:06:31.656Z,2.42
2018-08-27T02:09:00.432Z,2.87
2018-08-27T02:11:28.864Z,2.35
2018-08-27T02:13:57.320Z,2.60
2018-08-27T02:16:25.773Z,2.65
2018-08-27T02:18:54.209Z,3.10
2018-08-27T02:21:22.620Z,2.67
2018-08-27T02:23:51.081Z,2.90
2018-08-27T02:26:19.526Z,2.70
2018-08-27T02:28:47.988Z,2.85
2018-08-27T02:31:16.416Z,2.83
2018-08-27T02:33:44.850Z,2.98
2018-08-27T02:36:13.613Z,2.98
2018-08-27T02:38:42.149Z,2.98
2018-08-27T02:41:10.589Z,2.45
2018-08-27T02:43:39.065Z,2.87
2018-08-27T02:46:07.748Z,2.67
2018-08-27T02:48:36.179Z,2.80
2018-08-27T02:51:04.694Z,2.67
2018-08-27T02:53:33.244Z,2.80
2018-08-27T02:56:01.705Z,2.87
2018-08-27T02:58:30.175Z,2.40
2018-08-27T03:00:58.775Z,2.87
2018-08-27T03:03:27.822Z,2.85
2018-08-27T03:05:57.208Z,2.25
2018-08-27T03:08:25.689Z,2.65
2018-08-27T03:10:54.362Z,3.33
2018-08-27T03:13:22.824Z,2.37
2018-08-27T03:15:51.284Z,2.87
2018-08-27T03:18:19.758Z,2.62
2018-08-27T03:20:48.170Z,3.00
2018-08-27T03:23:16.661Z,3.10
2018-08-27T03:25:45.090Z,2.90
2018-08-27T03:28:13.740Z,2.72
2018-08-27T03:30:42.235Z,2.85
2018-08-27T03:33:10.784Z,3.17
2018-08-27T03:35:39.207Z,2.80
2018-08-27T03:38:07.648Z,3.40
2018-08-27T03:40:36.135Z,2.90
2018-08-27T03:43:04.527Z,2.95
2018-08-27T03:45:32.992Z,3.50
2018-08-27T03:48:01.434Z,2.80
2018-08-27T03:50:29.866Z,2.65
2018-08-27T03:52:58.361Z,3.08
2018-08-27T03:55:26.830Z,2.95
2018-08-27T03:57:55.335Z,2.85
2018-08-27T04:00:24.291Z,3.00
2018-08-27T04:02:52.740Z,2.75
2018-08-27T04:05:21.586Z,2.45
2018-08-27T04:07:50.047Z,2.85
2018-08-27T04:10:19.139Z,2.50
2018-08-27T04:12:47.831Z,2.55
2018-08-27T04:15:16.294Z,2.95
2018-08-27T04:17:44.844Z,3.55
2018-08-27T04:20:13.587Z,3.02
2018-08-27T04:22:42.021Z,2.90
2018-08-27T04:25:10.437Z,2.80
2018-08-27T04:27:38.966Z,2.77
2018-08-27T04:30:07.404Z,2.50
2018-08-27T04:32:35.845Z,3.20
2018-08-27T04:35:04.379Z,3.10
2018-08-27T04:37:32.818Z,2.55
2018-08-27T04:40:01.265Z,2.95
2018-08-27T04:42:29.812Z,2.85
2018-08-27T04:44:58.280Z,2.60
2018-08-27T04:47:26.826Z,2.70
2018-08-27T04:49:55.265Z,3.00
2018-08-27T04:52:23.668Z,3.12
2018-08-27T04:54:52.096Z,2.80
2018-08-27T04:57:20.553Z,3.08
2018-08-27T04:59:52.015Z,2.67
2018-08-27T05:02:20.435Z,3.00
2018-08-27T05:04:48.969Z,2.92
2018-08-27T05:07:17.448Z,2.85
2018-08-27T05:09:45.905Z,2.95
2018-08-27T05:12:14.474Z,2.77
2018-08-27T05:14:42.867Z,2.70
2018-08-27T05:17:11.327Z,2.85
2018-08-27T05:19:39.813Z,2.72
2018-08-27T05:22:08.427Z,3.60
2018-08-27T05:24:36.908Z,3.35
2018-08-27T05:27:05.637Z,3.40
2018-08-27T05:29:34.160Z,4.22
2018-08-27T05:32:02.673Z,3.40
2018-08-27T05:34:31.105Z,3.55
2018-08-27T05:36:59.588Z,3.42
2018-08-27T05:39:28.045Z,3.45
2018-08-27T05:41:56.528Z,3.77
2018-08-27T05:44:25.161Z,3.35
2018-08-27T05:46:53.600Z,3.20
2018-08-27T05:49:22.165Z,2.80
2018-08-27T05:51:50.612Z,2.65
2018-08-27T05:54:19.118Z,2.90
2018-08-27T05:56:47.530Z,3.22
2018-08-27T05:59:19.792Z,3.33
2018-08-27T06:01:48.367Z,2.52
2018-08-27T06:04:16.855Z,3.10
2018-08-27T06:06:45.393Z,3.70
2018-08-27T06:09:14.170Z,3.47
2018-08-27T06:11:42.624Z,3.12
2018-08-27T06:14:11.140Z,3.75
2018-08-27T06:16:39.736Z,3.12
2018-08-27T06:19:08.309Z,2.80
2018-08-27T06:21:36.872Z,3.42
2018-08-27T06:24:06.433Z,3.12
2018-08-27T06:26:35.257Z,3.95
2018-08-27T06:29:03.776Z,3.67
2018-08-27T06:31:32.653Z,4.17
2018-08-27T06:34:01.208Z,4.57
2018-08-27T06:36:29.664Z,4.10
2018-08-27T06:38:58.190Z,3.70
2018-08-27T06:41:27.087Z,4.10
2018-08-27T06:43:55.519Z,3.50
2018-08-27T06:46:24.044Z,3.33
2018-08-27T06:48:52.551Z,3.33
2018-08-27T06:51:21.000Z,3.77
2018-08-27T06:53:49.469Z,3.20
2018-08-27T06:56:17.908Z,3.73
2018-08-27T06:58:46.358Z,3.60
2018-08-27T07:01:14.959Z,3.50
2018-08-27T07:03:43.518Z,4.10
2018-08-27T07:06:12.224Z,3.33
2018-08-27T07:08:40.685Z,3.37
2018-08-27T07:11:09.253Z,2.60
2018-08-27T07:13:37.866Z,3.27
2018-08-27T07:16:06.875Z,3.40
2018-08-27T07:18:35.364Z,3.13
2018-08-27T07:21:03.884Z,2.90
2018-08-27T07:23:32.372Z,2.90
2018-08-27T07:26:00.841Z,3.10
2018-08-27T07:28:29.375Z,3.40
2018-08-27T07:30:57.915Z,3.23
2018-08-27T07:33:26.380Z,3.03
2018-08-27T07:35:55.004Z,3.97
2018-08-27T07:38:23.628Z,2.50
2018-08-27T07:40:52.912Z,3.30
2018-08-27T07:43:21.532Z,3.20
2018-08-27T07:45:49.921Z,2.53
2018-08-27T07:48:18.490Z,2.90
2018-08-27T07:50:47.151Z,2.80
2018-08-27T07:53:15.632Z,2.87
2018-08-27T07:55:44.087Z,2.60
2018-08-27T07:58:12.756Z,2.23
2018-08-27T08:00:41.227Z,2.30
2018-08-27T08:03:09.740Z,2.60
2018-08-27T08:05:38.217Z,2.23
2018-08-27T08:08:06.658Z,2.10
2018-08-27T08:10:35.213Z,2.43
2018-08-27T08:13:04.575Z,2.20
2018-08-27T08:15:33.165Z,2.50
2018-08-27T08:18:02.333Z,2.20
2018-08-27T08:20:30.812Z,2.07
2018-08-27T08:22:59.277Z,2.70
2018-08-27T08:25:27.776Z,2.07
2018-08-27T08:27:56.227Z,2.60
2018-08-27T08:30:24.760Z,2.40
2018-08-27T08:32:53.255Z,1.73
2018-08-27T08:35:21.669Z,2.00
2018-08-27T08:37:50.130Z,2.10
2018-08-27T08:40:18.652Z,2.10
2018-08-27T08:42:47.108Z,1.97
2018-08-27T08:45:15.923Z,1.73
2018-08-27T08:47:44.367Z,2.60
2018-08-27T08:50:12.825Z,2.17
2018-08-27T08:52:41.375Z,1.80
2018-08-27T08:55:09.917Z,2.00
2018-08-27T08:57:38.386Z,2.20
2018-08-27T09:00:06.901Z,1.90
2018-08-27T09:02:35.385Z,1.90
2018-08-27T09:05:03.960Z,1.80
2018-08-27T09:07:32.400Z,1.50
2018-08-27T09:10:00.954Z,1.80
2018-08-27T09:12:29.380Z,1.90
2018-08-27T09:14:57.857Z,1.60
2018-08-27T09:17:26.574Z,1.70
2018-08-27T09:19:55.013Z,2.10
2018-08-27T09:22:23.497Z,2.43
2018-08-27T09:24:51.972Z,1.60
2018-08-27T09:27:20.550Z,1.73
2018-08-27T09:29:48.996Z,1.70
2018-08-27T09:32:17.433Z,2.10
2018-08-27T09:34:45.970Z,1.93
2018-08-27T09:37:14.484Z,1.80
2018-08-27T09:39:42.985Z,1.70
2018-08-27T09:42:11.448Z,1.77
2018-08-27T09:44:39.946Z,1.90
2018-08-27T09:47:08.570Z,1.70
2018-08-27T09:49:37.208Z,1.97
2018-08-27T09:52:05.745Z,1.93
2018-08-27T09:54:34.268Z,2.10
2018-08-27T09:57:03.568Z,1.83
2018-08-27T09:59:32.125Z,2.13
2018-08-27T10:02:02.874Z,2.17
2018-08-27T10:04:31.641Z,2.00
2018-08-27T10:07:00.207Z,2.63
2018-08-27T10:09:28.629Z,1.77
2018-08-27T10:11:57.138Z,2.00
2018-08-27T10:14:25.618Z,1.97
2018-08-27T10:16:54.108Z,2.27
2018-08-27T10:19:22.759Z,2.50
2018-08-27T10:21:51.293Z,1.90
2018-08-27T10:24:19.737Z,2.20
2018-08-27T10:26:48.881Z,2.07
2018-08-27T10:29:17.344Z,1.77
2018-08-27T10:31:45.837Z,2.10
2018-08-27T10:34:14.344Z,2.13
2018-08-27T10:36:42.939Z,2.33
2018-08-27T10:39:11.973Z,2.00
2018-08-27T10:41:40.464Z,2.30
2018-08-27T10:44:08.877Z,2.40
2018-08-27T10:46:37.331Z,1.80
2018-08-27T10:49:05.941Z,2.20
2018-08-27T10:51:34.388Z,2.27
2018-08-27T10:54:02.836Z,1.87
2018-08-27T10:56:31.281Z,2.13
2018-08-27T10:58:59.733Z,1.87
2018-08-27T11:01:28.241Z,1.87
2018-08-27T11:03:56.748Z,1.70
2018-08-27T11:06:25.214Z,2.13
2018-08-27T11:08:53.642Z,1.43
2018-08-27T11:11:22.141Z,2.37
2018-08-27T11:13:50.669Z,1.80
2018-08-27T11:16:19.128Z,1.60
2018-08-27T11:18:47.604Z,1.60
2018-08-27T11:21:16.164Z,1.50
2018-08-27T11:23:45.845Z,1.70
2018-08-27T11:26:14.403Z,2.00
2018-08-27T11:28:42.828Z,1.90
2018-08-27T11:31:11.308Z,1.83
2018-08-27T11:33:39.781Z,1.60
2018-08-27T11:36:08.196Z,1.93
2018-08-27T11:38:36.741Z,2.07
2018-08-27T11:41:05.837Z,1.93
2018-08-27T11:43:34.328Z,2.17
2018-08-27T11:46:02.774Z,2.00
2018-08-27T11:48:31.242Z,1.77
2018-08-27T11:50:59.759Z,1.43
2018-08-27T11:53:28.278Z,2.33
2018-08-27T11:55:56.740Z,1.70
2018-08-27T11:58:25.298Z,1.60
2018-08-27T12:00:58.712Z,2.00
2018-08-27T12:03:27.213Z,2.00
2018-08-27T12:05:55.699Z,1.67
2018-08-27T12:08:24.161Z,1.87
2018-08-27T12:10:52.624Z,1.90
2018-08-27T12:13:21.269Z,2.20
2018-08-27T12:15:49.813Z,1.60
2018-08-27T12:18:18.700Z,2.00
2018-08-27T12:20:47.188Z,1.63
2018-08-27T12:23:15.868Z,2.10
2018-08-27T12:25:44.324Z,1.67
2018-08-27T12:28:12.815Z,1.80
2018-08-27T12:30:41.297Z,1.90
2018-08-27T12:33:09.742Z,2.00
2018-08-27T12:35:38.246Z,2.03
2018-08-27T12:38:06.704Z,1.93
2018-08-27T12:40:35.235Z,1.83
2018-08-27T12:43:03.635Z,1.87
2018-08-27T12:45:32.145Z,2.00
2018-08-27T12:48:00.634Z,2.37
2018-08-27T12:50:29.102Z,2.20
2018-08-27T12:52:57.550Z,8.00
2018-08-27T12:55:26.076Z,2.37
2018-08-27T12:57:54.645Z,2.10
2018-08-27T13:00:23.103Z,1.87
2018-08-27T13:02:51.545Z,1.63
2018-08-27T13:05:20.082Z,1.67
2018-08-27T13:07:48.581Z,1.73
2018-08-27T13:10:17.548Z,2.10
2018-08-27T13:12:46.229Z,1.63
2018-08-27T13:15:14.618Z,1.93
2018-08-27T13:17:43.694Z,2.20
2018-08-27T13:20:12.124Z,2.17
2018-08-27T13:22:40.648Z,1.87
2018-08-27T13:25:09.122Z,1.83
2018-08-27T13:27:37.600Z,1.70
2018-08-27T13:30:06.834Z,1.70
2018-08-27T13:32:35.386Z,1.83
2018-08-27T13:35:03.852Z,2.00
2018-08-27T13:37:32.351Z,1.93
2018-08-27T13:40:01.240Z,2.00
2018-08-27T13:42:29.793Z,2.10
2018-08-27T13:44:58.226Z,2.07
2018-08-27T13:47:26.679Z,1.80
2018-08-27T13:49:55.146Z,1.47
2018-08-27T13:52:24.558Z,1.97
2018-08-27T13:54:53.014Z,1.97
2018-08-27T13:57:21.561Z,1.63
2018-08-27T13:59:50.035Z,2.20
2018-08-27T14:02:18.532Z,1.77
2018-08-27T14:04:47.193Z,1.80
2018-08-27T14:07:15.690Z,1.60
2018-08-27T14:09:44.240Z,1.93
2018-08-27T14:12:12.808Z,1.77
2018-08-27T14:14:41.302Z,1.57
2018-08-27T14:17:11.126Z,1.60
2018-08-27T14:19:39.688Z,1.50
2018-08-27T14:22:08.072Z,2.27
2018-08-27T14:24:37.665Z,1.97
2018-08-27T14:27:06.212Z,1.83
2018-08-27T14:29:34.678Z,1.97
2018-08-27T14:32:03.159Z,1.67
2018-08-27T14:34:31.789Z,1.70
2018-08-27T14:37:00.224Z,1.83
2018-08-27T14:39:28.677Z,1.70
2018-08-27T14:41:57.152Z,1.50
2018-08-27T14:44:25.615Z,2.43
2018-08-27T14:46:54.093Z,1.77
2018-08-27T14:49:22.557Z,1.97
2018-08-27T14:51:51.030Z,2.10
2018-08-27T14:54:19.597Z,1.57
2018-08-27T14:56:48.004Z,2.27
2018-08-27T14:59:16.571Z,2.00
2018-08-27T15:01:47.548Z,2.10
2018-08-27T15:04:16.966Z,1.80
2018-08-27T15:06:45.437Z,2.07
2018-08-27T15:09:13.968Z,2.23
2018-08-27T15:11:42.500Z,1.93
2018-08-27T15:14:10.973Z,1.77
2018-08-27T15:16:39.547Z,2.07
2018-08-27T15:19:07.895Z,1.73
2018-08-27T15:21:36.449Z,1.90
2018-08-27T15:24:05.497Z,1.80
2018-08-27T15:26:33.975Z,1.80
2018-08-27T15:29:02.468Z,1.90
2018-08-27T15:31:30.945Z,1.90
2018-08-27T15:33:59.457Z,1.93
2018-08-27T15:36:27.935Z,1.90
2018-08-27T15:38:56.469Z,2.10
2018-08-27T15:41:25.212Z,1.50
2018-08-27T15:43:53.637Z,2.13
2018-08-27T15:46:27.632Z,1.73
2018-08-27T15:48:56.272Z,1.73
2018-08-27T15:51:24.967Z,1.90
2018-08-27T15:53:53.372Z,1.50
2018-08-27T15:56:22.011Z,1.70
2018-08-27T15:58:50.461Z,1.53
2018-08-27T16:01:19.739Z,1.60
2018-08-27T16:03:49.148Z,1.47
2018-08-27T16:06:17.613Z,1.50
2018-08-27T16:08:46.116Z,1.70
2018-08-27T16:11:14.643Z,1.90
2018-08-27T16:13:43.176Z,1.63
2018-08-27T16:16:11.976Z,1.57
2018-08-27T16:18:40.553Z,1.30
2018-08-27T16:21:09.756Z,1.97
2018-08-27T16:23:38.748Z,1.80
2018-08-27T16:26:07.654Z,1.70
2018-08-27T16:28:36.197Z,1.37
2018-08-27T16:31:05.023Z,1.80
2018-08-27T16:33:33.473Z,1.47
2018-08-27T16:36:02.017Z,1.70
2018-08-27T16:38:30.520Z,1.40
2018-08-27T16:40:59.203Z,1.63
2018-08-27T16:43:27.789Z,1.60
2018-08-27T16:45:56.272Z,1.63
2018-08-27T16:48:25.213Z,1.60
2018-08-27T16:50:53.665Z,1.53
2018-08-27T16:53:22.082Z,1.77
2018-08-27T16:55:50.724Z,1.50
2018-08-27T16:58:19.229Z,1.50
2018-08-27T17:00:47.674Z,1.80
2018-08-27T17:03:16.196Z,1.53
2018-08-27T17:05:44.740Z,1.77
2018-08-27T17:08:13.137Z,1.23
2018-08-27T17:10:41.645Z,1.90
2018-08-27T17:13:10.106Z,1.70
2018-08-27T17:15:39.193Z,1.60
2018-08-27T17:18:07.646Z,1.30
2018-08-27T17:20:36.125Z,1.67
2018-08-27T17:23:04.782Z,2.07
2018-08-27T17:25:33.293Z,2.10
2018-08-27T17:28:01.909Z,2.10
2018-08-27T17:30:30.405Z,1.77
2018-08-27T17:32:59.061Z,1.50
2018-08-27T17:35:27.697Z,1.83
2018-08-27T17:37:56.209Z,1.90
2018-08-27T17:40:24.679Z,1.70
2018-08-27T17:42:53.139Z,1.67
2018-08-27T17:45:21.708Z,2.00
2018-08-27T17:47:50.544Z,2.00
2018-08-27T17:50:18.989Z,2.03
2018-08-27T17:52:47.497Z,1.87
2018-08-27T17:55:16.077Z,1.97
2018-08-27T17:57:44.588Z,1.70
2018-08-27T18:00:13.061Z,1.97
2018-08-27T18:02:41.509Z,1.67
2018-08-27T18:05:10.144Z,1.70
2018-08-27T18:07:39.424Z,1.60
2018-08-27T18:10:08.174Z,1.93
2018-08-27T18:12:36.979Z,2.17
2018-08-27T18:15:07.477Z,1.50
2018-08-27T18:17:40.005Z,2.20
2018-08-27T18:20:10.139Z,1.70
2018-08-27T18:22:39.895Z,2.20
2018-08-27T18:25:09.705Z,2.07
2018-08-27T18:27:40.925Z,1.83
2018-08-27T18:30:12.565Z,2.07
2018-08-27T18:32:43.727Z,2.03
2018-08-27T18:35:15.665Z,2.40
2018-08-27T18:37:47.293Z,1.83
2018-08-27T18:40:17.959Z,2.00
2018-08-27T18:42:48.994Z,1.70
2018-08-27T18:45:19.397Z,2.07
2018-08-27T18:47:47.950Z,2.07
2018-08-27T18:50:16.556Z,1.90
2018-08-27T18:52:45.482Z,2.13
2018-08-27T18:55:14.222Z,2.07
2018-08-27T18:57:42.748Z,2.00
2018-08-27T19:00:11.629Z,1.60
2018-08-27T19:02:40.639Z,1.90
2018-08-27T19:05:09.650Z,1.80
2018-08-27T19:07:38.730Z,1.93
2018-08-27T19:10:07.620Z,1.70
2018-08-27T19:12:36.953Z,1.80
2018-08-27T19:15:05.976Z,2.17
2018-08-27T19:17:34.868Z,2.30
2018-08-27T19:20:04.101Z,2.20
2018-08-27T19:22:33.008Z,2.17
2018-08-27T19:25:02.487Z,2.20
2018-08-27T19:27:31.396Z,2.40
2018-08-27T19:30:00.393Z,2.17
2018-08-27T19:32:29.266Z,1.93
2018-08-27T19:34:58.708Z,2.30
2018-08-27T19:37:28.582Z,2.47
2018-08-27T19:39:57.391Z,2.40
2018-08-27T19:42:26.282Z,2.40
2018-08-27T19:44:55.275Z,2.20
2018-08-27T19:47:23.776Z,2.27
2018-08-27T19:49:52.225Z,2.33
2018-08-27T19:52:20.825Z,1.90
2018-08-27T19:54:49.314Z,2.40
2018-08-27T19:57:17.768Z,2.73
2018-08-27T19:59:47.032Z,1.90
2018-08-27T20:02:15.456Z,1.77
2018-08-27T20:04:43.936Z,2.20
2018-08-27T20:07:12.449Z,2.53
2018-08-27T20:09:41.522Z,2.03
2018-08-27T20:12:10.022Z,2.13
2018-08-27T20:14:38.503Z,2.33
2018-08-27T20:17:07.070Z,2.70
2018-08-27T20:19:35.580Z,2.10
2018-08-27T20:22:04.734Z,2.40
2018-08-27T20:24:33.239Z,2.37
2018-08-27T20:27:01.848Z,2.20
2018-08-27T20:29:30.449Z,2.53
2018-08-27T20:31:58.982Z,2.57
2018-08-27T20:34:27.553Z,2.30
2018-08-27T20:36:56.211Z,2.37
2018-08-27T20:39:24.780Z,2.43
2018-08-27T20:41:53.417Z,2.37
2018-08-27T20:44:21.832Z,2.40
2018-08-27T20:46:50.299Z,2.20
2018-08-27T20:49:18.748Z,2.47
2018-08-27T20:51:47.293Z,2.47
2018-08-27T20:54:15.782Z,2.60
2018-08-27T20:56:44.317Z,2.30
2018-08-27T20:59:12.778Z,2.20
2018-08-27T21:01:41.293Z,2.50
2018-08-27T21:04:09.862Z,2.13
2018-08-27T21:06:38.324Z,2.20
2018-08-27T21:09:07.208Z,2.47
2018-08-27T21:11:35.704Z,2.43
2018-08-27T21:15:18.237Z,2.30
2018-08-27T21:17:49.453Z,2.40
2018-08-27T21:20:18.841Z,2.77
2018-08-27T21:22:47.352Z,2.70
2018-08-27T21:25:16.409Z,2.50
2018-08-27T21:27:45.754Z,2.80
2018-08-27T21:30:15.529Z,2.20
2018-08-27T21:32:44.087Z,2.20
2018-08-27T21:35:12.694Z,2.20
2018-08-27T21:37:41.152Z,2.93
2018-08-27T21:40:09.663Z,2.30
2018-08-27T21:42:38.230Z,2.53
2018-08-27T21:45:06.913Z,2.20
2018-08-27T21:47:35.337Z,2.40
2018-08-27T21:50:04.014Z,2.27
2018-08-27T21:52:32.494Z,2.33
2018-08-27T21:55:01.732Z,1.93
2018-08-27T21:57:30.188Z,2.27
2018-08-27T21:59:59.497Z,2.70
2018-08-27T22:02:33.233Z,2.30
2018-08-27T22:05:01.803Z,2.93
2018-08-27T22:07:30.292Z,3.00
2018-08-27T22:09:58.800Z,2.70
2018-08-27T22:12:27.364Z,2.43
2018-08-27T22:14:55.816Z,2.40
2018-08-27T22:17:24.265Z,2.50
2018-08-27T22:19:52.714Z,2.17
2018-08-27T22:22:21.154Z,2.60
2018-08-27T22:24:49.594Z,2.23
2018-08-27T22:27:18.121Z,2.33
2018-08-27T22:29:46.572Z,3.10
2018-08-27T22:32:15.040Z,2.47
2018-08-27T22:34:43.504Z,2.13
2018-08-27T22:37:12.040Z,3.17
2018-08-27T22:39:40.550Z,3.43
2018-08-27T22:42:09.039Z,2.73
2018-08-27T22:44:37.560Z,2.43
2018-08-27T22:47:09.316Z,2.70
2018-08-27T22:49:38.828Z,3.00
2018-08-27T22:52:07.390Z,2.50
2018-08-27T22:54:35.877Z,2.70
2018-08-27T22:57:04.373Z,3.00
2018-08-27T22:59:32.789Z,3.13
2018-08-27T23:02:01.296Z,2.80
2018-08-27T23:04:35.085Z,3.13
2018-08-27T23:07:03.544Z,2.87
2018-08-27T23:09:31.991Z,3.30
2018-08-27T23:12:00.549Z,3.00
2018-08-27T23:14:29.163Z,2.70
2018-08-27T23:16:57.836Z,2.40
2018-08-27T23:19:26.301Z,2.47
2018-08-27T23:21:54.798Z,2.67
2018-08-27T23:24:23.329Z,2.77
2018-08-27T23:26:51.780Z,2.80
2018-08-27T23:29:20.281Z,3.07
2018-08-27T23:31:48.769Z,2.57
2018-08-27T23:34:17.371Z,2.53
2018-08-27T23:36:45.897Z,2.60
2018-08-27T23:39:14.374Z,2.80
2018-08-27T23:41:42.832Z,2.90
2018-08-27T23:44:11.514Z,2.73
2018-08-27T23:46:39.931Z,2.67
2018-08-27T23:49:08.358Z,3.20
2018-08-27T23:51:36.872Z,2.80
2018-08-27T23:54:05.503Z,2.60
2018-08-27T23:56:34.118Z,2.40
2018-08-27T23:59:02.609Z,2.73
